Time;durP1;ratioP1;P1;durP2;ratioP2;P2;SDS_P1;SDS_P2;PMS_P1;PMS_P2;Temp;Humidity;BMP_temperature;BMP_pressure;BME280_temperature;BME280_humidity;BME280_pressure;Samples;Min_cycle;Max_cycle;Signal;HPM_P1;HPM_P2
2022/06/17 00:01:51;;;;;;;0.50;0.35;;;13.20;99.90;;;;;;5088958;28;20505;-79
2022/06/17 00:04:18;;;;;;;0.43;0.30;;;13.20;99.90;;;;;;5088045;28;20792;-79
2022/06/17 00:06:55;;;;;;;0.40;0.40;;;13.20;99.90;;;;;;5088491;28;20044;-79
2022/06/17 00:09:24;;;;;;;0.47;0.40;;;13.20;99.90;;;;;;5088275;28;20088;-78
2022/06/17 00:11:50;;;;;;;0.93;0.47;;;13.20;99.90;;;;;;5088179;28;20048;-77
2022/06/17 00:14:24;;;;;;;0.20;0.20;;;13.20;99.90;;;;;;5088622;28;20036;-79
2022/06/17 00:16:51;;;;;;;0.20;0.10;;;13.20;99.90;;;;;;5088149;28;20105;-78
2022/06/17 00:19:18;;;;;;;0.15;0.15;;;13.20;99.90;;;;;;5088249;28;20036;-79
2022/06/17 00:21:48;;;;;;;0.10;0.10;;;13.10;99.90;;;;;;5071735;28;20048;-79
2022/06/17 00:24:22;;;;;;;0.25;0.25;;;13.10;99.90;;;;;;5088407;28;20093;-78
2022/06/17 00:26:49;;;;;;;0.45;0.30;;;13.10;99.90;;;;;;5088338;28;20033;-79
2022/06/17 00:29:18;;;;;;;0.90;0.38;;;13.00;99.90;;;;;;5071816;28;20567;-78
2022/06/17 00:31:45;;;;;;;0.40;0.32;;;13.00;99.90;;;;;;5088352;28;20101;-78
2022/06/17 00:34:12;;;;;;;0.40;0.40;;;13.00;99.90;;;;;;5088330;28;20393;-79
2022/06/17 00:36:40;;;;;;;0.22;0.22;;;13.00;99.90;;;;;;5087817;28;20037;-78
2022/06/17 00:39:14;;;;;;;0.47;0.28;;;13.00;99.90;;;;;;5071727;28;20044;-78
2022/06/17 00:41:45;;;;;;;0.55;0.35;;;12.90;99.90;;;;;;5071189;28;20163;-78
2022/06/17 00:44:58;;;;;;;0.70;0.30;;;12.90;99.90;;;;;;5088229;28;20051;-77
2022/06/17 00:47:46;;;;;;;0.25;0.25;;;12.90;99.90;;;;;;5054994;28;20048;-77
2022/06/17 00:50:22;;;;;;;0.17;0.17;;;12.90;99.90;;;;;;5071974;28;20036;-79
2022/06/17 00:53:14;;;;;;;0.10;0.10;;;12.90;99.90;;;;;;5073415;28;20036;-78
2022/06/17 00:55:50;;;;;;;0.13;0.13;;;12.90;99.90;;;;;;5091490;28;20064;-79
2022/06/17 00:58:26;;;;;;;0.20;0.20;;;12.90;99.90;;;;;;5092090;28;20052;-79
2022/06/17 01:00:57;;;;;;;0.20;0.20;;;12.80;99.90;;;;;;5075377;28;20048;-77
2022/06/17 01:03:27;;;;;;;0.57;0.30;;;12.80;99.90;;;;;;5075097;28;20405;-78
2022/06/17 01:06:15;;;;;;;0.30;0.20;;;12.80;99.90;;;;;;5091633;28;20149;-79
2022/06/17 01:11:33;;;;;;;0.40;0.30;;;12.80;99.90;;;;;;5087998;28;20056;-79
2022/06/17 01:14:00;;;;;;;0.60;0.30;;;12.80;99.90;;;;;;5039244;28;20041;-78
2022/06/17 01:16:32;;;;;;;0.30;0.30;;;12.80;99.90;;;;;;5055059;28;20120;-78
2022/06/17 01:19:04;;;;;;;0.40;0.38;;;12.80;99.90;;;;;;5075140;28;20041;-79
2022/06/17 01:21:45;;;;;;;0.70;0.45;;;12.80;99.90;;;;;;5091468;28;20048;-79
2022/06/17 01:24:12;;;;;;;0.43;0.20;;;12.80;99.90;;;;;;5091658;28;20062;-79
2022/06/17 01:26:40;;;;;;;0.43;0.30;;;12.70;99.90;;;;;;5074542;28;20040;-78
2022/06/17 01:29:12;;;;;;;0.22;0.22;;;12.70;99.90;;;;;;5074641;28;20413;-78
2022/06/17 01:31:47;;;;;;;0.40;0.30;;;12.70;99.90;;;;;;5091081;28;20116;-77
2022/06/17 01:34:15;;;;;;;0.70;0.35;;;12.70;99.90;;;;;;5074611;28;20040;-77
2022/06/17 01:36:43;;;;;;;0.68;0.35;;;12.70;99.90;;;;;;5090958;28;20079;-77
2022/06/17 01:39:14;;;;;;;0.38;0.30;;;12.70;99.90;;;;;;5074464;28;20123;-78
2022/06/17 01:41:43;;;;;;;0.75;0.40;;;12.70;99.90;;;;;;5075313;28;20119;-79
2022/06/17 01:44:17;;;;;;;0.40;0.32;;;12.70;99.90;;;;;;5090968;28;20049;-79
2022/06/17 01:46:47;;;;;;;0.95;0.30;;;12.60;99.90;;;;;;5073980;28;20119;-79
2022/06/17 01:49:19;;;;;;;1.10;0.52;;;12.60;99.90;;;;;;5090568;28;20047;-80
2022/06/17 01:52:11;;;;;;;0.30;0.20;;;12.60;99.90;;;;;;5073825;28;20044;-79
2022/06/17 01:54:55;;;;;;;0.30;0.30;;;12.60;99.90;;;;;;5082576;28;20131;-79
2022/06/17 01:57:28;;;;;;;0.75;0.47;;;12.60;99.90;;;;;;5073952;28;20044;-79
2022/06/17 02:00:03;;;;;;;1.48;0.30;;;12.60;99.90;;;;;;5090766;28;20588;-78
2022/06/17 02:02:31;;;;;;;0.40;0.20;;;12.50;99.90;;;;;;5091055;28;20485;-79
2022/06/17 02:05:04;;;;;;;0.80;0.38;;;12.60;99.90;;;;;;5090402;28;20075;-77
2022/06/17 02:07:37;;;;;;;0.20;0.20;;;12.50;99.90;;;;;;5090641;28;20036;-79
2022/06/17 02:10:04;;;;;;;0.70;0.50;;;12.50;99.90;;;;;;5090746;28;20161;-79
2022/06/17 02:12:31;;;;;;;0.50;0.30;;;12.50;99.90;;;;;;5074228;28;20040;-79
2022/06/17 02:14:58;;;;;;;0.43;0.40;;;12.50;99.90;;;;;;5089981;28;20405;-77
2022/06/17 02:17:29;;;;;;;0.75;0.45;;;12.50;99.90;;;;;;5073788;28;20078;-77
2022/06/17 02:19:56;;;;;;;0.32;0.30;;;12.50;99.90;;;;;;5073348;28;20497;-77
2022/06/17 02:22:29;;;;;;;0.40;0.40;;;12.50;99.90;;;;;;5073747;28;20493;-77
2022/06/17 02:25:06;;;;;;;0.63;0.47;;;12.40;99.90;;;;;;5089728;28;20123;-78
2022/06/17 02:27:35;;;;;;;0.57;0.40;;;12.40;99.90;;;;;;5073643;28;20048;-79
2022/06/17 02:30:08;;;;;;;0.35;0.35;;;12.40;99.90;;;;;;5073482;28;20492;-78
2022/06/17 02:32:36;;;;;;;0.43;0.25;;;12.40;99.90;;;;;;5073088;28;20067;-78
2022/06/17 02:35:18;;;;;;;0.43;0.28;;;12.40;99.90;;;;;;5057293;28;20052;-78
2022/06/17 02:37:45;;;;;;;0.60;0.38;;;12.30;99.90;;;;;;5072990;28;20519;-79
2022/06/17 02:40:35;;;;;;;0.28;0.28;;;12.40;99.90;;;;;;5073515;28;20044;-79
2022/06/17 02:43:05;;;;;;;0.65;0.40;;;12.40;99.90;;;;;;5073483;28;20037;-78
2022/06/17 02:45:39;;;;;;;0.70;0.50;;;12.30;99.90;;;;;;5072907;28;20044;-79
2022/06/17 02:48:32;;;;;;;0.10;0.10;;;12.30;99.90;;;;;;5072751;28;20040;-79
2022/06/17 02:51:00;;;;;;;0.20;0.20;;;12.30;99.90;;;;;;5089133;28;20036;-79
2022/06/17 02:53:36;;;;;;;0.13;0.13;;;12.30;99.90;;;;;;5089868;28;20051;-79
2022/06/17 02:56:25;;;;;;;0.80;0.50;;;12.30;99.90;;;;;;5072777;28;20052;-79
2022/06/17 02:58:52;;;;;;;0.28;0.28;;;12.30;99.90;;;;;;5088968;28;20048;-77
2022/06/17 03:01:25;;;;;;;0.70;0.38;;;12.20;99.90;;;;;;5089817;28;20052;-79
2022/06/17 03:03:54;;;;;;;1.13;0.60;;;12.30;99.90;;;;;;5072387;28;20523;-79
2022/06/17 03:06:49;;;;;;;0.35;0.32;;;12.20;99.90;;;;;;5089815;28;20048;-80
2022/06/17 03:09:26;;;;;;;0.57;0.40;;;12.20;99.90;;;;;;5070737;28;20048;-77
2022/06/17 03:11:55;;;;;;;0.45;0.38;;;12.20;99.90;;;;;;5072358;28;20161;-80
2022/06/17 03:14:25;;;;;;;0.47;0.32;;;12.20;99.90;;;;;;5072273;28;20077;-79
2022/06/17 03:16:55;;;;;;;0.40;0.40;;;12.20;99.90;;;;;;5088390;28;20512;-78
2022/06/17 03:19:23;;;;;;;0.63;0.50;;;12.20;99.90;;;;;;5086436;28;20044;-77
2022/06/17 03:21:50;;;;;;;0.47;0.40;;;12.20;99.90;;;;;;5080333;28;20115;-78
2022/06/17 03:24:27;;;;;;;0.30;0.30;;;12.20;99.90;;;;;;5064217;28;20163;-77
2022/06/17 03:26:59;;;;;;;0.22;0.22;;;12.20;99.90;;;;;;5085070;28;20045;-79
2022/06/17 03:29:27;;;;;;;0.40;0.38;;;12.20;99.90;;;;;;5052581;28;20413;-77
2022/06/17 03:32:02;;;;;;;0.43;0.30;;;12.20;99.90;;;;;;5052563;28;20486;-77
2022/06/17 03:34:37;;;;;;;0.52;0.40;;;12.20;99.90;;;;;;5089077;28;20040;-77
2022/06/17 03:37:09;;;;;;;0.65;0.50;;;12.20;99.90;;;;;;5071886;28;20048;-78
2022/06/17 03:39:47;;;;;;;0.20;0.20;;;12.20;99.90;;;;;;5088800;28;20493;-80
2022/06/17 03:42:30;;;;;;;0.57;0.28;;;12.20;99.90;;;;;;5072797;28;20117;-78
2022/06/17 03:45:14;;;;;;;0.20;0.20;;;12.20;99.90;;;;;;5071827;28;20048;-77
2022/06/17 03:47:46;;;;;;;0.40;0.38;;;12.30;99.90;;;;;;5088534;28;20043;-77
2022/06/17 03:50:28;;;;;;;0.70;0.40;;;12.40;99.90;;;;;;5088597;28;20076;-77
2022/06/17 03:53:02;;;;;;;0.20;0.20;;;12.50;99.90;;;;;;5088079;28;20044;-80
2022/06/17 03:55:29;;;;;;;0.52;0.20;;;12.60;99.90;;;;;;5071841;28;20052;-78
2022/06/17 03:57:59;;;;;;;0.88;0.38;;;12.70;99.90;;;;;;5088290;28;20040;-80
2022/06/17 04:00:35;;;;;;;0.35;0.30;;;12.80;99.90;;;;;;5088398;28;20126;-80
2022/06/17 04:03:04;;;;;;;1.00;0.32;;;13.00;99.90;;;;;;5071087;28;20044;-79
2022/06/17 04:05:32;;;;;;;0.30;0.30;;;13.00;99.90;;;;;;5088357;28;20044;-78
2022/06/17 04:07:58;;;;;;;0.22;0.22;;;13.20;99.90;;;;;;5071594;28;20063;-78
2022/06/17 04:10:29;;;;;;;0.68;0.47;;;13.20;99.90;;;;;;5071960;28;20044;-77
2022/06/17 04:12:55;;;;;;;0.63;0.40;;;13.30;99.90;;;;;;5071249;28;20182;-79
2022/06/17 04:16:01;;;;;;;1.30;0.47;;;13.40;99.90;;;;;;5071332;28;20510;-80
2022/06/17 04:18:27;;;;;;;0.40;0.40;;;13.40;99.90;;;;;;5071912;28;20056;-78
2022/06/17 04:20:56;;;;;;;0.30;0.30;;;13.40;99.90;;;;;;5071512;28;20558;-78
2022/06/17 04:23:33;;;;;;;0.30;0.30;;;13.50;99.90;;;;;;5071708;28;20036;-79
2022/06/17 04:26:18;;;;;;;0.38;0.30;;;13.60;99.90;;;;;;5087529;28;20055;-78
2022/06/17 04:29:14;;;;;;;0.98;0.60;;;13.60;99.90;;;;;;5088437;28;20044;-77
2022/06/17 04:31:43;;;;;;;0.40;0.40;;;13.80;99.90;;;;;;5080798;28;20066;-77
2022/06/17 04:34:18;;;;;;;1.20;0.55;;;13.90;99.90;;;;;;5087499;28;20040;-78
2022/06/17 04:36:49;;;;;;;1.45;0.68;;;14.00;99.90;;;;;;5071484;28;20045;-79
2022/06/17 04:39:29;;;;;;;0.82;0.45;;;14.10;99.90;;;;;;5087893;28;20112;-79
2022/06/17 04:41:59;;;;;;;0.75;0.40;;;14.30;99.90;;;;;;5071203;28;20048;-77
2022/06/17 04:44:26;;;;;;;0.60;0.40;;;14.40;99.90;;;;;;5087651;28;20566;-78
2022/06/17 04:47:02;;;;;;;0.75;0.40;;;14.50;99.90;;;;;;5067050;28;20029;-79
2022/06/17 04:49:33;;;;;;;0.63;0.50;;;14.60;99.90;;;;;;5062873;28;20040;-77
2022/06/17 04:52:21;;;;;;;0.77;0.45;;;14.70;99.90;;;;;;5076720;28;20110;-77
2022/06/17 04:54:48;;;;;;;0.55;0.47;;;14.70;99.90;;;;;;5076036;28;20043;-77
2022/06/17 04:57:16;;;;;;;0.70;0.45;;;14.80;99.90;;;;;;5043637;28;20057;-77
2022/06/17 04:59:44;;;;;;;0.43;0.40;;;14.90;99.90;;;;;;5088033;28;20032;-79
2022/06/17 05:02:23;;;;;;;0.55;0.50;;;14.90;99.90;;;;;;5071140;28;20039;-79
2022/06/17 05:04:53;;;;;;;0.82;0.45;;;14.90;99.90;;;;;;5074374;28;20453;-79
2022/06/17 05:07:20;;;;;;;0.75;0.40;;;15.00;99.90;;;;;;5087542;28;20094;-77
2022/06/17 05:09:55;;;;;;;0.35;0.35;;;15.00;99.90;;;;;;5088087;28;20045;-79
2022/06/17 05:12:33;;;;;;;1.00;0.63;;;15.10;99.90;;;;;;5071127;28;20156;-80
2022/06/17 05:15:06;;;;;;;0.93;0.52;;;15.10;99.90;;;;;;5070901;28;20501;-77
2022/06/17 05:17:33;;;;;;;1.08;0.77;;;15.20;99.90;;;;;;5090435;28;20047;-80
2022/06/17 05:20:00;;;;;;;0.40;0.40;;;15.20;99.90;;;;;;5089389;28;20059;-78
2022/06/17 05:22:35;;;;;;;0.47;0.40;;;15.20;99.90;;;;;;5071166;28;20045;-78
2022/06/17 05:25:05;;;;;;;1.07;0.67;;;15.20;99.90;;;;;;5087328;28;20044;-78
2022/06/17 05:27:32;;;;;;;0.70;0.60;;;15.20;99.90;;;;;;5051294;28;20282;-78
2022/06/17 05:29:59;;;;;;;1.15;0.82;;;15.30;99.90;;;;;;5051059;28;20056;-79
2022/06/17 05:32:26;;;;;;;0.82;0.50;;;15.20;99.90;;;;;;5067316;28;20403;-80
2022/06/17 05:34:52;;;;;;;0.50;0.50;;;15.20;99.90;;;;;;5034754;28;20157;-79
2022/06/17 05:37:19;;;;;;;0.75;0.40;;;15.30;99.90;;;;;;5050725;28;20455;-80
2022/06/17 05:39:46;;;;;;;0.70;0.40;;;15.30;99.90;;;;;;5054056;28;20072;-79
2022/06/17 05:42:13;;;;;;;0.63;0.40;;;15.30;99.90;;;;;;5070863;28;20473;-79
2022/06/17 05:44:40;;;;;;;1.08;0.68;;;15.30;99.90;;;;;;5070973;28;20045;-78
2022/06/17 05:47:07;;;;;;;0.85;0.43;;;15.30;99.90;;;;;;5047221;28;20032;-77
2022/06/17 05:49:34;;;;;;;0.90;0.40;;;15.30;99.90;;;;;;5058087;28;20044;-80
2022/06/17 05:52:00;;;;;;;0.40;0.32;;;15.30;99.90;;;;;;5074082;28;20074;-79
2022/06/17 05:54:27;;;;;;;0.50;0.50;;;15.40;99.90;;;;;;5041214;28;20050;-78
2022/06/17 05:56:54;;;;;;;0.68;0.40;;;15.50;99.90;;;;;;5073717;28;20075;-79
2022/06/17 05:59:20;;;;;;;0.82;0.60;;;15.50;99.90;;;;;;5073556;28;20045;-78
2022/06/17 06:01:47;;;;;;;0.80;0.40;;;15.60;99.90;;;;;;5090886;28;20044;-78
2022/06/17 06:04:14;;;;;;;1.17;0.45;;;15.70;99.90;;;;;;5073689;28;20036;-80
2022/06/17 06:06:40;;;;;;;0.50;0.40;;;15.80;99.90;;;;;;5090631;28;20048;-78
2022/06/17 06:09:09;;;;;;;0.55;0.40;;;15.90;99.90;;;;;;5057002;28;20551;-78
2022/06/17 06:11:36;;;;;;;0.90;0.57;;;16.00;99.90;;;;;;5091137;28;20086;-79
2022/06/17 06:14:03;;;;;;;0.85;0.60;;;16.10;99.90;;;;;;5073684;28;20051;-78
2022/06/17 06:16:30;;;;;;;0.85;0.75;;;16.20;99.90;;;;;;5090462;28;20560;-80
2022/06/17 06:18:57;;;;;;;1.15;0.63;;;16.20;99.90;;;;;;5048285;28;20501;-79
2022/06/17 06:21:24;;;;;;;0.77;0.50;;;16.30;99.90;;;;;;5068602;28;20359;-81
2022/06/17 06:23:50;;;;;;;1.30;0.60;;;16.40;99.90;;;;;;5044448;28;20086;-81
2022/06/17 06:26:20;;;;;;;0.85;0.60;;;16.40;99.90;;;;;;5064520;28;20119;-79
2022/06/17 06:28:47;;;;;;;0.38;0.30;;;16.50;99.90;;;;;;5058267;28;20114;-79
2022/06/17 06:31:22;;;;;;;1.55;0.70;;;16.50;99.90;;;;;;5075253;28;20032;-78
2022/06/17 06:33:49;;;;;;;;;;;16.60;99.90;;;;;;5088525;28;20739;-79
2022/06/17 06:36:16;;;;;;;0.82;0.60;;;16.60;99.90;;;;;;5064684;28;20054;-78
2022/06/17 06:38:43;;;;;;;0.52;0.47;;;16.50;99.90;;;;;;5078906;28;20497;-81
2022/06/17 06:41:09;;;;;;;1.17;0.70;;;16.60;99.90;;;;;;5058255;28;20498;-78
2022/06/17 06:43:36;;;;;;;1.42;0.75;;;16.60;99.90;;;;;;5071463;28;20033;-78
2022/06/17 06:46:09;;;;;;;0.90;0.70;;;16.70;99.90;;;;;;5067982;28;20093;-79
2022/06/17 06:48:36;;;;;;;0.73;0.50;;;16.70;99.90;;;;;;5073170;28;20037;-78
2022/06/17 06:51:03;;;;;;;0.68;0.50;;;16.70;99.90;;;;;;5089205;28;20055;-79
2022/06/17 06:53:30;;;;;;;0.85;0.60;;;16.70;99.90;;;;;;5089714;28;20044;-78
2022/06/17 06:55:57;;;;;;;0.93;0.60;;;16.70;99.90;;;;;;5072947;28;20059;-79
2022/06/17 06:58:25;;;;;;;0.98;0.65;;;16.80;99.90;;;;;;5089266;28;20053;-80
2022/06/17 07:00:56;;;;;;;0.82;0.50;;;16.80;99.90;;;;;;5084460;28;20033;-80
2022/06/17 07:03:25;;;;;;;0.93;0.57;;;16.90;99.90;;;;;;5081281;28;20041;-79
2022/06/17 07:05:55;;;;;;;0.85;0.60;;;16.90;99.90;;;;;;5072776;28;20033;-81
2022/06/17 07:08:24;;;;;;;1.02;0.68;;;17.00;99.90;;;;;;5071717;28;20044;-79
2022/06/17 07:10:54;;;;;;;1.05;0.63;;;17.00;99.90;;;;;;5069670;28;20046;-81
2022/06/17 07:13:22;;;;;;;1.38;0.60;;;17.10;99.90;;;;;;5074974;28;20110;-80
2022/06/17 07:15:52;;;;;;;1.00;0.73;;;17.20;99.90;;;;;;5088934;28;20066;-78
2022/06/17 07:18:22;;;;;;;1.60;0.60;;;17.30;99.90;;;;;;5088832;28;20047;-80
2022/06/17 07:20:52;;;;;;;0.80;0.60;;;17.40;99.90;;;;;;5084677;28;20040;-79
2022/06/17 07:23:29;;;;;;;1.42;0.82;;;17.50;99.90;;;;;;5062247;28;20040;-79
2022/06/17 07:26:02;;;;;;;0.65;0.50;;;17.60;99.90;;;;;;5064336;28;20568;-81
2022/06/17 07:28:29;;;;;;;1.45;0.73;;;17.70;99.90;;;;;;5077831;28;20073;-79
2022/06/17 07:30:56;;;;;;;1.30;0.57;;;17.80;99.90;;;;;;5066712;28;20090;-81
2022/06/17 07:33:26;;;;;;;1.45;0.65;;;18.00;99.90;;;;;;5078656;28;20044;-79
2022/06/17 07:35:55;;;;;;;0.77;0.60;;;18.10;99.90;;;;;;5072566;28;20574;-80
2022/06/17 07:41:15;;;;;;;1.13;0.63;;;18.20;99.90;;;;;;5092641;28;20052;-80
2022/06/17 07:43:42;;;;;;;0.60;0.50;;;18.30;99.90;;;;;;5052368;28;20037;-80
2022/06/17 07:46:10;;;;;;;0.80;0.52;;;18.40;99.90;;;;;;5035836;28;20041;-80
2022/06/17 07:48:40;;;;;;;1.42;0.60;;;18.40;99.90;;;;;;5068339;28;20490;-80
2022/06/17 07:51:08;;;;;;;0.50;0.50;;;18.50;99.90;;;;;;5077674;28;20044;-78
2022/06/17 07:53:35;;;;;;;0.85;0.60;;;18.60;99.90;;;;;;5071534;28;20044;-80
2022/06/17 07:56:04;;;;;;;0.85;0.60;;;18.70;99.90;;;;;;5068172;28;20475;-78
2022/06/17 07:58:31;;;;;;;0.50;0.40;;;18.80;99.90;;;;;;5085075;28;20607;-80
2022/06/17 08:00:57;;;;;;;0.43;0.40;;;18.90;99.90;;;;;;5084481;28;20029;-81
2022/06/17 08:03:24;;;;;;;0.60;0.52;;;18.90;99.90;;;;;;5068183;28;20041;-80
2022/06/17 08:05:54;;;;;;;1.17;0.77;;;18.90;99.90;;;;;;5084843;28;20493;-77
2022/06/17 08:08:23;;;;;;;1.88;0.90;;;19.00;99.90;;;;;;5084631;28;20132;-80
2022/06/17 08:10:52;;;;;;;0.52;0.50;;;19.10;99.90;;;;;;5068110;28;20049;-80
2022/06/17 08:13:20;;;;;;;0.28;0.28;;;19.20;99.90;;;;;;5067687;28;20045;-80
2022/06/17 08:15:51;;;;;;;0.82;0.50;;;19.30;99.90;;;;;;5068676;28;20039;-81
2022/06/17 08:18:19;;;;;;;0.55;0.40;;;19.50;99.90;;;;;;5068343;28;20095;-78
2022/06/17 08:20:45;;;;;;;1.27;0.70;;;19.70;99.90;;;;;;5084696;28;20105;-81
2022/06/17 08:23:14;;;;;;;1.08;0.80;;;20.00;99.90;;;;;;5084784;28;20041;-79
2022/06/17 08:25:42;;;;;;;1.15;0.75;;;20.20;99.90;;;;;;5064462;28;20029;-81
2022/06/17 08:28:11;;;;;;;0.98;0.60;;;20.40;99.90;;;;;;5059795;28;20037;-80
2022/06/17 08:30:44;;;;;;;0.70;0.50;;;20.40;99.90;;;;;;5064677;28;20049;-78
2022/06/17 08:33:11;;;;;;;1.50;0.63;;;20.40;99.90;;;;;;5066454;28;20049;-77
2022/06/17 08:35:48;;;;;;;1.20;0.73;;;20.50;99.90;;;;;;5067052;28;20064;-77
2022/06/17 08:38:19;;;;;;;0.77;0.52;;;20.70;99.90;;;;;;5067508;28;20455;-78
2022/06/17 08:40:55;;;;;;;0.80;0.45;;;20.90;99.90;;;;;;5084225;28;20033;-77
2022/06/17 08:43:55;;;;;;;0.82;0.60;;;20.90;99.90;;;;;;5084261;28;20049;-79
2022/06/17 08:46:43;;;;;;;0.70;0.50;;;21.20;99.90;;;;;;5084319;28;20557;-79
2022/06/17 08:49:22;;;;;;;0.80;0.57;;;21.30;99.90;;;;;;5085011;28;20131;-78
2022/06/17 08:52:19;;;;;;;0.80;0.60;;;21.50;99.90;;;;;;5084799;28;20041;-80
2022/06/17 08:54:55;;;;;;;0.70;0.50;;;21.60;99.90;;;;;;5067859;28;20095;-79
2022/06/17 08:57:32;;;;;;;0.90;0.60;;;21.80;99.90;;;;;;5084888;28;20465;-80
2022/06/17 09:00:20;;;;;;;1.27;0.57;;;21.90;99.90;;;;;;5084642;28;20037;-80
2022/06/17 09:03:24;;;;;;;0.77;0.52;;;21.90;99.90;;;;;;5084392;28;20053;-79
2022/06/17 09:05:53;;;;;;;0.50;0.40;;;22.10;99.90;;;;;;5068590;28;20048;-80
2022/06/17 09:08:39;;;;;;;0.68;0.52;;;22.20;99.90;;;;;;5084922;28;20490;-80
2022/06/17 09:11:05;;;;;;;0.52;0.43;;;22.30;99.90;;;;;;5085243;28;20048;-80
2022/06/17 09:14:00;;;;;;;0.93;0.52;;;22.30;99.90;;;;;;5085205;28;20413;-80
2022/06/17 09:16:58;;;;;;;0.68;0.60;;;22.30;99.90;;;;;;5071529;28;20041;-80
2022/06/17 09:19:35;;;;;;;0.70;0.60;;;22.40;99.90;;;;;;5088134;28;20045;-79
2022/06/17 09:22:18;;;;;;;0.60;0.50;;;22.30;99.90;;;;;;5088363;28;20045;-80
2022/06/17 09:24:45;;;;;;;0.52;0.30;;;22.30;99.90;;;;;;5086663;28;20528;-80
2022/06/17 09:27:27;;;;;;;0.82;0.50;;;22.20;99.90;;;;;;5071785;28;20057;-81
2022/06/17 09:30:02;;;;;;;1.02;0.60;;;22.10;99.90;;;;;;5063475;28;20033;-78
2022/06/17 09:32:42;;;;;;;1.33;0.73;;;22.10;99.90;;;;;;5075333;28;20037;-79
2022/06/17 09:35:21;;;;;;;0.77;0.60;;;22.00;99.90;;;;;;5062627;28;20053;-80
2022/06/17 09:37:58;;;;;;;0.47;0.45;;;22.00;99.90;;;;;;5062875;28;20041;-78
2022/06/17 09:40:35;;;;;;;0.47;0.40;;;22.10;99.90;;;;;;5061610;28;20048;-79
2022/06/17 09:43:20;;;;;;;0.70;0.55;;;22.10;99.90;;;;;;5085811;28;20040;-79
2022/06/17 09:45:52;;;;;;;0.80;0.50;;;22.20;99.90;;;;;;5068461;28;20156;-80
2022/06/17 09:48:42;;;;;;;0.77;0.60;;;22.30;99.90;;;;;;5069612;28;20044;-80
2022/06/17 09:51:43;;;;;;;0.75;0.60;;;22.30;99.90;;;;;;5086713;28;20496;-78
2022/06/17 09:54:18;;;;;;;1.63;0.73;;;22.40;99.90;;;;;;5086836;28;20041;-79
2022/06/17 09:56:47;;;;;;;0.68;0.50;;;22.40;99.90;;;;;;5069608;28;20065;-77
2022/06/17 09:59:28;;;;;;;1.52;0.88;;;22.40;99.90;;;;;;5069860;28;20040;-78
2022/06/17 10:01:58;;;;;;;0.80;0.45;;;22.40;99.90;;;;;;5070095;28;20044;-78
2022/06/17 10:04:25;;;;;;;0.63;0.60;;;22.50;99.90;;;;;;5086906;28;20045;-80
2022/06/17 10:07:10;;;;;;;0.80;0.50;;;22.70;99.90;;;;;;5085478;28;20045;-79
2022/06/17 10:10:01;;;;;;;0.38;0.30;;;23.00;99.90;;;;;;5061659;28;20041;-79
2022/06/17 10:12:34;;;;;;;0.40;0.40;;;23.20;99.90;;;;;;5066537;28;20075;-80
2022/06/17 10:15:16;;;;;;;0.70;0.40;;;23.30;99.90;;;;;;5056091;28;20037;-80
2022/06/17 10:18:34;;;;;;;1.02;0.63;;;23.30;99.90;;;;;;5063310;28;20098;-79
2022/06/17 10:21:23;;;;;;;0.43;0.40;;;23.30;99.90;;;;;;5079209;28;20037;-81
2022/06/17 10:24:20;;;;;;;0.50;0.40;;;23.10;99.90;;;;;;5060527;28;20136;-81
2022/06/17 10:27:28;;;;;;;0.77;0.50;;;23.10;99.90;;;;;;5078274;28;20366;-78
2022/06/17 10:30:01;;;;;;;1.00;0.57;;;22.90;99.90;;;;;;4992621;28;20046;-78
2022/06/17 10:32:32;;;;;;;0.50;0.50;;;22.90;99.90;;;;;;5008949;28;21546;-78
2022/06/17 10:35:02;;;;;;;0.50;0.50;;;22.80;99.90;;;;;;5049033;28;20098;-78
2022/06/17 10:37:33;;;;;;;0.40;0.35;;;22.70;99.90;;;;;;5062161;28;20063;-80
2022/06/17 10:40:01;;;;;;;0.43;0.40;;;22.70;99.90;;;;;;5053441;28;20025;-78
2022/06/17 10:42:28;;;;;;;0.75;0.47;;;22.60;99.90;;;;;;5068542;28;20037;-78
2022/06/17 10:44:59;;;;;;;0.40;0.40;;;22.50;99.90;;;;;;5074559;28;20525;-78
2022/06/17 10:47:57;;;;;;;1.30;0.80;;;22.50;99.90;;;;;;5076266;28;20053;-80
2022/06/17 10:50:28;;;;;;;0.68;0.45;;;22.50;99.90;;;;;;5068913;28;20041;-81
2022/06/17 10:53:30;;;;;;;0.52;0.40;;;22.40;99.90;;;;;;5082558;28;20045;-78
2022/06/17 10:56:01;;;;;;;0.70;0.47;;;22.50;99.90;;;;;;5024764;28;20446;-80
2022/06/17 10:58:33;;;;;;;0.68;0.50;;;22.50;99.90;;;;;;5064470;28;20041;-80
2022/06/17 11:01:03;;;;;;;0.80;0.60;;;22.50;99.90;;;;;;5063639;28;20035;-79
2022/06/17 11:03:35;;;;;;;0.98;0.57;;;22.40;99.90;;;;;;5091950;28;20044;-79
2022/06/17 11:06:12;;;;;;;0.85;0.68;;;22.40;99.90;;;;;;5096152;28;20118;-80
2022/06/17 11:09:01;;;;;;;0.63;0.52;;;22.40;99.90;;;;;;5056525;28;20040;-78
2022/06/17 11:14:30;;;;;;;0.65;0.55;;;22.50;99.90;;;;;;5084601;28;20075;-79
2022/06/17 11:16:58;;;;;;;0.95;0.52;;;22.60;99.90;;;;;;5079210;28;20041;-79
2022/06/17 11:19:26;;;;;;;0.50;0.50;;;22.70;99.90;;;;;;5079071;28;20052;-79
2022/06/17 11:21:57;;;;;;;1.13;0.70;;;22.80;99.90;;;;;;5059005;28;20040;-80
2022/06/17 11:24:28;;;;;;;0.57;0.50;;;22.90;99.90;;;;;;5056370;28;20041;-80
2022/06/17 11:27:13;;;;;;;0.93;0.60;;;23.00;99.90;;;;;;5061909;28;20484;-80
2022/06/17 11:29:47;;;;;;;0.43;0.40;;;23.10;99.90;;;;;;5059710;28;20044;-80
2022/06/17 11:32:19;;;;;;;0.52;0.40;;;23.20;99.90;;;;;;5085533;28;20119;-80
2022/06/17 11:34:53;;;;;;;0.75;0.50;;;23.30;99.90;;;;;;5084928;28;20087;-79
2022/06/17 11:37:23;;;;;;;1.10;0.50;;;23.40;99.90;;;;;;5067492;28;20106;-80
2022/06/17 11:40:09;;;;;;;0.60;0.50;;;23.60;99.90;;;;;;5076389;28;20088;-79
2022/06/17 11:42:45;;;;;;;0.82;0.55;;;23.70;99.90;;;;;;5058992;28;20565;-80
2022/06/17 11:45:17;;;;;;;1.77;0.80;;;23.80;99.90;;;;;;5075379;28;20108;-78
2022/06/17 11:47:49;;;;;;;0.63;0.47;;;24.00;99.90;;;;;;5079947;28;20048;-80
2022/06/17 11:50:23;;;;;;;0.52;0.50;;;24.10;99.90;;;;;;5084392;28;20505;-78
2022/06/17 11:52:52;;;;;;;0.90;0.60;;;24.20;99.90;;;;;;5054228;28;20116;-81
2022/06/17 11:55:28;;;;;;;0.77;0.60;;;24.50;99.90;;;;;;5064491;28;20048;-78
2022/06/17 11:57:55;;;;;;;0.43;0.43;;;24.60;99.90;;;;;;5074599;28;20450;-78
2022/06/17 12:00:26;;;;;;;0.77;0.50;;;24.50;99.50;;;;;;5084140;28;20083;-78
2022/06/17 12:02:59;;;;;;;0.98;0.55;;;24.60;99.90;;;;;;5067767;28;20047;-80
2022/06/17 12:05:30;;;;;;;0.82;0.60;;;24.80;99.90;;;;;;5067247;28;20041;-78
2022/06/17 12:08:09;;;;;;;1.10;0.55;;;24.80;99.50;;;;;;5066168;28;20391;-78
2022/06/17 12:10:50;;;;;;;0.77;0.50;;;24.80;98.40;;;;;;5083590;28;20505;-77
2022/06/17 12:13:32;;;;;;;0.82;0.60;;;24.80;99.00;;;;;;5083622;28;20511;-78
2022/06/17 12:16:13;;;;;;;1.05;0.60;;;24.50;97.70;;;;;;5083254;28;20037;-77
2022/06/17 12:18:48;;;;;;;0.73;0.50;;;24.40;99.90;;;;;;5066429;28;20413;-78
2022/06/17 12:21:33;;;;;;;1.10;0.60;;;24.40;99.90;;;;;;5066994;28;20044;-78
2022/06/17 12:24:11;;;;;;;0.50;0.43;;;24.40;98.40;;;;;;5067011;28;20079;-78
2022/06/17 12:27:00;;;;;;;0.73;0.55;;;24.50;99.90;;;;;;5066912;28;20057;-79
2022/06/17 12:29:35;;;;;;;0.50;0.47;;;24.50;99.50;;;;;;5084208;28;20048;-81
2022/06/17 12:32:14;;;;;;;1.42;0.70;;;24.60;99.90;;;;;;5084725;28;20041;-81
2022/06/17 12:35:07;;;;;;;2.55;0.73;;;24.70;99.20;;;;;;5085262;28;20045;-81
2022/06/17 12:37:47;;;;;;;0.98;0.50;;;24.70;99.90;;;;;;5068069;28;20037;-83
2022/06/17 12:40:39;;;;;;;1.50;0.70;;;24.80;99.70;;;;;;5069055;28;20041;-83
2022/06/17 12:43:23;;;;;;;1.40;0.88;;;24.90;99.90;;;;;;5084895;28;20090;-81
2022/06/17 12:45:49;;;;;;;0.90;0.60;;;24.90;99.90;;;;;;5084748;28;20051;-81
2022/06/17 12:48:34;;;;;;;0.30;0.30;;;25.10;99.90;;;;;;5087144;28;20502;-81
2022/06/17 12:54:25;;;;;;;1.42;0.60;;;25.30;98.30;;;;;;5105756;28;20106;-81
2022/06/17 12:56:58;;;;;;;1.02;0.65;;;25.30;97.90;;;;;;5072081;28;20099;-80
2022/06/17 13:00:03;;;;;;;0.90;0.55;;;25.40;99.10;;;;;;5088931;28;20067;-80
2022/06/17 13:03:03;;;;;;;1.55;0.60;;;25.50;97.80;;;;;;5032000;28;20076;-82
2022/06/17 13:05:52;;;;;;;0.98;0.57;;;25.70;97.40;;;;;;5072143;28;20077;-81
2022/06/17 13:08:24;;;;;;;0.68;0.47;;;25.80;97.20;;;;;;5072457;28;20037;-81
2022/06/17 13:11:32;;;;;;;1.08;0.70;;;26.00;97.40;;;;;;5088913;28;20044;-81
2022/06/17 13:14:18;;;;;;;0.45;0.45;;;26.00;96.60;;;;;;5084719;28;20141;-81
2022/06/17 13:16:56;;;;;;;0.57;0.45;;;25.90;97.20;;;;;;5088534;28;20537;-81
2022/06/17 13:19:43;;;;;;;0.77;0.50;;;25.90;97.30;;;;;;5088816;28;20041;-81
2022/06/17 13:22:14;;;;;;;0.50;0.40;;;25.90;94.90;;;;;;5071895;28;20064;-81
2022/06/17 13:25:30;;;;;;;0.45;0.40;;;25.80;95.90;;;;;;5072114;28;20186;-81
2022/06/17 13:27:57;;;;;;;1.20;0.68;;;25.60;94.30;;;;;;5062318;28;20041;-81
2022/06/17 13:30:32;;;;;;;0.25;0.25;;;25.60;96.30;;;;;;5071643;28;20088;-81
2022/06/17 13:33:17;;;;;;;0.77;0.60;;;25.40;95.50;;;;;;5088107;28;20037;-81
2022/06/17 13:35:53;;;;;;;0.50;0.40;;;25.40;96.00;;;;;;5084672;28;20072;-82
2022/06/17 13:38:45;;;;;;;0.80;0.50;;;25.30;95.70;;;;;;5051618;28;20095;-81